sensor_id;sensor_type;location;lat;lon;timestamp;pressure;altitude;pressure_sealevel;temperature;humidity
70374;BME280;57792;49.198;7.890;2022-09-27T00:00:50;97001.94;;;8.24;85.35
70374;BME280;57792;49.198;7.890;2022-09-27T00:01:50;97003.28;;;8.31;85.20
70374;BME280;57792;49.198;7.890;2022-09-27T00:02:51;96990.03;;;8.15;85.54
70374;BME280;57792;49.198;7.890;2022-09-27T00:03:52;96987.00;;;8.07;85.66
70374;BME280;57792;49.198;7.890;2022-09-27T00:04:54;96987.03;;;8.21;85.28
70374;BME280;57792;49.198;7.890;2022-09-27T00:06:02;96993.97;;;8.24;85.29
70374;BME280;57792;49.198;7.890;2022-09-27T00:07:04;97003.19;;;8.32;85.08
70374;BME280;57792;49.198;7.890;2022-09-27T00:08:05;96997.22;;;8.43;84.82
70374;BME280;57792;49.198;7.890;2022-09-27T00:09:05;96996.19;;;8.46;84.54
70374;BME280;57792;49.198;7.890;2022-09-27T00:10:06;96998.56;;;8.50;84.59
70374;BME280;57792;49.198;7.890;2022-09-27T00:11:14;96995.25;;;8.47;84.58
70374;BME280;57792;49.198;7.890;2022-09-27T00:12:16;97004.91;;;8.33;84.92
70374;BME280;57792;49.198;7.890;2022-09-27T00:13:17;96995.78;;;8.23;85.09
70374;BME280;57792;49.198;7.890;2022-09-27T00:14:17;97007.84;;;8.43;84.43
70374;BME280;57792;49.198;7.890;2022-09-27T00:15:18;96991.44;;;8.36;84.90
70374;BME280;57792;49.198;7.890;2022-09-27T00:16:19;97009.09;;;8.52;84.55
70374;BME280;57792;49.198;7.890;2022-09-27T00:17:19;96996.34;;;8.28;85.08
70374;BME280;57792;49.198;7.890;2022-09-27T00:18:20;97000.31;;;8.21;85.37
70374;BME280;57792;49.198;7.890;2022-09-27T00:19:21;97004.41;;;8.27;84.97
70374;BME280;57792;49.198;7.890;2022-09-27T00:20:22;97006.97;;;8.13;85.09
70374;BME280;57792;49.198;7.890;2022-09-27T00:21:23;97003.38;;;8.14;84.85
70374;BME280;57792;49.198;7.890;2022-09-27T00:22:24;97008.44;;;8.18;84.57
70374;BME280;57792;49.198;7.890;2022-09-27T00:23:25;97011.34;;;8.29;84.68
70374;BME280;57792;49.198;7.890;2022-09-27T00:24:25;97009.63;;;8.28;84.56
70374;BME280;57792;49.198;7.890;2022-09-27T00:25:25;97019.41;;;8.28;84.82
70374;BME280;57792;49.198;7.890;2022-09-27T00:26:26;97020.25;;;8.28;84.83
70374;BME280;57792;49.198;7.890;2022-09-27T00:27:27;97026.16;;;8.33;84.52
70374;BME280;57792;49.198;7.890;2022-09-27T00:28:28;97007.75;;;8.15;84.77
70374;BME280;57792;49.198;7.890;2022-09-27T00:29:29;97019.97;;;8.03;85.15
70374;BME280;57792;49.198;7.890;2022-09-27T00:30:29;97029.75;;;8.17;84.90
70374;BME280;57792;49.198;7.890;2022-09-27T00:31:30;97024.81;;;8.26;84.66
70374;BME280;57792;49.198;7.890;2022-09-27T00:32:31;97031.72;;;8.29;84.72
70374;BME280;57792;49.198;7.890;2022-09-27T00:33:31;97030.97;;;8.27;84.36
70374;BME280;57792;49.198;7.890;2022-09-27T00:34:31;97034.31;;;8.44;83.89
70374;BME280;57792;49.198;7.890;2022-09-27T00:35:32;97034.50;;;8.41;83.97
70374;BME280;57792;49.198;7.890;2022-09-27T00:36:33;97025.22;;;8.34;83.69
70374;BME280;57792;49.198;7.890;2022-09-27T00:37:33;97026.75;;;8.38;83.89
70374;BME280;57792;49.198;7.890;2022-09-27T00:38:34;97020.78;;;8.19;84.11
70374;BME280;57792;49.198;7.890;2022-09-27T00:39:34;97028.66;;;8.21;84.30
70374;BME280;57792;49.198;7.890;2022-09-27T00:40:35;97026.34;;;8.15;84.49
70374;BME280;57792;49.198;7.890;2022-09-27T00:41:36;97030.13;;;8.26;84.41
70374;BME280;57792;49.198;7.890;2022-09-27T00:42:37;97029.94;;;8.29;83.97
70374;BME280;57792;49.198;7.890;2022-09-27T00:43:46;97034.78;;;8.07;84.36
70374;BME280;57792;49.198;7.890;2022-09-27T00:45:59;97026.16;;;8.18;84.28
70374;BME280;57792;49.198;7.890;2022-09-27T00:48:24;97033.34;;;8.16;84.65
70374;BME280;57792;49.198;7.890;2022-09-27T00:49:31;97027.28;;;8.14;84.04
70374;BME280;57792;49.198;7.890;2022-09-27T00:50:37;97036.63;;;8.21;83.83
70374;BME280;57792;49.198;7.890;2022-09-27T00:51:39;97022.72;;;8.16;83.90
70374;BME280;57792;49.198;7.890;2022-09-27T00:54:12;97031.13;;;8.08;84.37
70374;BME280;57792;49.198;7.890;2022-09-27T00:55:19;97023.31;;;7.91;84.71
70374;BME280;57792;49.198;7.890;2022-09-27T00:56:24;97032.41;;;7.87;85.27
70374;BME280;57792;49.198;7.890;2022-09-27T00:57:26;97026.22;;;8.02;84.80
70374;BME280;57792;49.198;7.890;2022-09-27T00:58:33;97031.44;;;8.03;84.78
70374;BME280;57792;49.198;7.890;2022-09-27T00:59:38;97032.75;;;8.10;84.72
70374;BME280;57792;49.198;7.890;2022-09-27T01:00:44;97023.28;;;8.06;84.93
70374;BME280;57792;49.198;7.890;2022-09-27T01:01:48;97024.53;;;8.15;84.50
70374;BME280;57792;49.198;7.890;2022-09-27T01:02:51;97012.38;;;8.11;84.24
70374;BME280;57792;49.198;7.890;2022-09-27T01:04:57;97026.88;;;8.21;84.11
70374;BME280;57792;49.198;7.890;2022-09-27T01:05:59;97022.81;;;8.30;83.94
70374;BME280;57792;49.198;7.890;2022-09-27T01:07:00;97019.81;;;8.36;83.71
70374;BME280;57792;49.198;7.890;2022-09-27T01:08:00;97021.97;;;8.29;83.89
70374;BME280;57792;49.198;7.890;2022-09-27T01:09:01;97015.41;;;8.05;84.02
70374;BME280;57792;49.198;7.890;2022-09-27T01:10:02;97026.41;;;8.13;84.11
70374;BME280;57792;49.198;7.890;2022-09-27T01:11:13;97015.22;;;8.08;84.22
70374;BME280;57792;49.198;7.890;2022-09-27T01:13:45;97019.56;;;8.09;84.52
70374;BME280;57792;49.198;7.890;2022-09-27T01:15:00;97021.28;;;8.26;83.54
70374;BME280;57792;49.198;7.890;2022-09-27T01:16:23;97010.47;;;7.99;84.29
70374;BME280;57792;49.198;7.890;2022-09-27T01:19:08;97032.75;;;8.10;84.27
70374;BME280;57792;49.198;7.890;2022-09-27T01:25:00;97029.00;;;8.15;84.17
70374;BME280;57792;49.198;7.890;2022-09-27T01:28:12;97020.16;;;8.14;84.27
70374;BME280;57792;49.198;7.890;2022-09-27T01:32:08;97022.06;;;8.12;84.48
70374;BME280;57792;49.198;7.890;2022-09-27T01:34:29;97019.19;;;8.01;84.89
70374;BME280;57792;49.198;7.890;2022-09-27T01:35:50;97024.25;;;8.05;84.52
70374;BME280;57792;49.198;7.890;2022-09-27T01:38:46;97018.91;;;8.21;83.86
70374;BME280;57792;49.198;7.890;2022-09-27T01:40:26;97016.56;;;8.15;83.96
70374;BME280;57792;49.198;7.890;2022-09-27T01:41:44;97018.81;;;8.23;84.09
70374;BME280;57792;49.198;7.890;2022-09-27T01:44:02;97015.63;;;8.16;84.29
70374;BME280;57792;49.198;7.890;2022-09-27T01:45:23;97024.31;;;8.20;84.05
70374;BME280;57792;49.198;7.890;2022-09-27T01:46:30;97019.56;;;8.25;83.95
70374;BME280;57792;49.198;7.890;2022-09-27T01:47:40;97027.53;;;8.25;84.07
70374;BME280;57792;49.198;7.890;2022-09-27T01:48:46;97023.94;;;8.26;84.00
70374;BME280;57792;49.198;7.890;2022-09-27T01:50:17;97023.00;;;8.11;84.47
70374;BME280;57792;49.198;7.890;2022-09-27T01:51:44;97025.16;;;8.20;84.53
70374;BME280;57792;49.198;7.890;2022-09-27T01:52:57;97022.16;;;8.10;84.01
70374;BME280;57792;49.198;7.890;2022-09-27T01:54:01;97028.41;;;8.25;83.82
70374;BME280;57792;49.198;7.890;2022-09-27T01:55:05;97018.13;;;8.19;83.72
70374;BME280;57792;49.198;7.890;2022-09-27T01:56:11;97008.50;;;8.02;84.17
70374;BME280;57792;49.198;7.890;2022-09-27T01:57:17;97021.94;;;7.99;84.59
70374;BME280;57792;49.198;7.890;2022-09-27T01:58:26;97024.03;;;8.08;84.38
70374;BME280;57792;49.198;7.890;2022-09-27T01:59:40;97025.31;;;8.17;84.25
70374;BME280;57792;49.198;7.890;2022-09-27T02:00:46;97027.38;;;8.12;84.55
70374;BME280;57792;49.198;7.890;2022-09-27T02:01:51;97023.66;;;8.00;84.55
70374;BME280;57792;49.198;7.890;2022-09-27T02:03:17;97031.78;;;7.97;84.47
70374;BME280;57792;49.198;7.890;2022-09-27T02:04:27;97018.50;;;7.97;84.55
70374;BME280;57792;49.198;7.890;2022-09-27T02:05:37;97032.59;;;8.14;84.13
70374;BME280;57792;49.198;7.890;2022-09-27T02:06:44;97026.25;;;8.16;83.88
70374;BME280;57792;49.198;7.890;2022-09-27T02:07:50;97020.22;;;7.98;84.09
70374;BME280;57792;49.198;7.890;2022-09-27T02:08:57;97037.09;;;7.97;84.55
70374;BME280;57792;49.198;7.890;2022-09-27T02:10:02;97024.41;;;8.02;84.16
70374;BME280;57792;49.198;7.890;2022-09-27T02:11:09;97022.19;;;7.95;84.33
70374;BME280;57792;49.198;7.890;2022-09-27T02:12:12;97024.31;;;8.04;84.14
70374;BME280;57792;49.198;7.890;2022-09-27T02:13:21;97028.38;;;7.95;84.60
70374;BME280;57792;49.198;7.890;2022-09-27T02:14:27;97014.75;;;8.01;84.31
70374;BME280;57792;49.198;7.890;2022-09-27T02:15:43;97022.44;;;8.06;84.25
70374;BME280;57792;49.198;7.890;2022-09-27T02:16:58;97027.75;;;8.06;84.46
70374;BME280;57792;49.198;7.890;2022-09-27T02:18:01;97028.38;;;7.95;84.92
70374;BME280;57792;49.198;7.890;2022-09-27T02:19:12;97023.91;;;7.96;84.51
70374;BME280;57792;49.198;7.890;2022-09-27T02:20:22;97033.31;;;8.01;84.52
70374;BME280;57792;49.198;7.890;2022-09-27T02:21:33;97032.13;;;8.07;84.26
70374;BME280;57792;49.198;7.890;2022-09-27T02:23:57;97027.16;;;8.01;84.01
70374;BME280;57792;49.198;7.890;2022-09-27T02:26:41;97033.06;;;8.06;83.88
70374;BME280;57792;49.198;7.890;2022-09-27T02:29:08;97042.75;;;7.91;84.69
70374;BME280;57792;49.198;7.890;2022-09-27T02:30:12;97044.88;;;7.85;84.54
70374;BME280;57792;49.198;7.890;2022-09-27T02:31:13;97047.63;;;7.83;84.98
70374;BME280;57792;49.198;7.890;2022-09-27T02:32:14;97047.47;;;7.86;84.59
70374;BME280;57792;49.198;7.890;2022-09-27T02:33:14;97037.53;;;7.90;84.98
70374;BME280;57792;49.198;7.890;2022-09-27T02:34:28;97046.75;;;7.98;85.02
70374;BME280;57792;49.198;7.890;2022-09-27T02:35:34;97041.72;;;7.94;84.62
70374;BME280;57792;49.198;7.890;2022-09-27T02:36:35;97048.47;;;7.84;84.57
70374;BME280;57792;49.198;7.890;2022-09-27T02:37:36;97053.97;;;7.81;85.11
70374;BME280;57792;49.198;7.890;2022-09-27T02:38:37;97054.13;;;7.93;84.75
70374;BME280;57792;49.198;7.890;2022-09-27T02:39:37;97058.41;;;7.96;84.57
70374;BME280;57792;49.198;7.890;2022-09-27T02:40:43;97060.03;;;7.83;84.90
70374;BME280;57792;49.198;7.890;2022-09-27T02:41:44;97059.44;;;7.93;84.52
70374;BME280;57792;49.198;7.890;2022-09-27T02:42:44;97064.31;;;7.85;84.80
70374;BME280;57792;49.198;7.890;2022-09-27T02:43:49;97059.09;;;7.84;84.72
70374;BME280;57792;49.198;7.890;2022-09-27T02:44:51;97061.75;;;7.99;84.28
70374;BME280;57792;49.198;7.890;2022-09-27T02:51:22;97074.16;;;7.99;84.12
70374;BME280;57792;49.198;7.890;2022-09-27T02:55:31;97076.47;;;7.89;84.46
70374;BME280;57792;49.198;7.890;2022-09-27T02:58:16;97078.38;;;7.71;84.72
70374;BME280;57792;49.198;7.890;2022-09-27T03:00:37;97075.38;;;7.62;84.39
70374;BME280;57792;49.198;7.890;2022-09-27T03:03:15;97080.94;;;7.89;83.78
70374;BME280;57792;49.198;7.890;2022-09-27T03:04:31;97079.72;;;7.78;83.99
70374;BME280;57792;49.198;7.890;2022-09-27T03:05:41;97080.19;;;7.71;84.50
70374;BME280;57792;49.198;7.890;2022-09-27T03:06:45;97081.53;;;7.78;84.17
70374;BME280;57792;49.198;7.890;2022-09-27T03:07:47;97081.69;;;7.75;84.78
70374;BME280;57792;49.198;7.890;2022-09-27T03:08:48;97070.44;;;7.71;84.76
70374;BME280;57792;49.198;7.890;2022-09-27T03:09:51;97079.16;;;7.73;84.76
70374;BME280;57792;49.198;7.890;2022-09-27T03:10:52;97076.50;;;7.73;84.26
70374;BME280;57792;49.198;7.890;2022-09-27T03:11:52;97083.75;;;7.86;84.49
70374;BME280;57792;49.198;7.890;2022-09-27T03:12:55;97084.69;;;7.85;84.87
70374;BME280;57792;49.198;7.890;2022-09-27T03:13:56;97083.41;;;7.76;84.67
70374;BME280;57792;49.198;7.890;2022-09-27T03:14:58;97082.72;;;7.88;84.35
70374;BME280;57792;49.198;7.890;2022-09-27T03:15:59;97073.47;;;7.95;84.52
70374;BME280;57792;49.198;7.890;2022-09-27T03:16:59;97093.03;;;8.08;83.86
70374;BME280;57792;49.198;7.890;2022-09-27T03:18:00;97099.63;;;8.17;84.00
70374;BME280;57792;49.198;7.890;2022-09-27T03:19:00;97099.50;;;8.20;83.89
70374;BME280;57792;49.198;7.890;2022-09-27T03:20:01;97095.59;;;8.10;83.83
70374;BME280;57792;49.198;7.890;2022-09-27T03:21:02;97105.97;;;8.15;83.62
70374;BME280;57792;49.198;7.890;2022-09-27T03:22:02;97095.06;;;7.89;84.19
70374;BME280;57792;49.198;7.890;2022-09-27T03:23:03;97107.22;;;7.93;84.24
70374;BME280;57792;49.198;7.890;2022-09-27T03:24:03;97103.09;;;7.88;84.14
70374;BME280;57792;49.198;7.890;2022-09-27T03:25:04;97098.38;;;7.77;84.31
70374;BME280;57792;49.198;7.890;2022-09-27T03:26:05;97101.91;;;7.93;83.99
70374;BME280;57792;49.198;7.890;2022-09-27T03:27:06;97105.16;;;7.98;83.77
70374;BME280;57792;49.198;7.890;2022-09-27T03:28:06;97094.88;;;7.92;83.71
70374;BME280;57792;49.198;7.890;2022-09-27T03:29:07;97108.41;;;7.88;83.44
70374;BME280;57792;49.198;7.890;2022-09-27T03:30:09;97102.94;;;7.91;83.62
70374;BME280;57792;49.198;7.890;2022-09-27T03:31:10;97106.88;;;7.68;84.14
70374;BME280;57792;49.198;7.890;2022-09-27T03:32:10;97113.97;;;7.67;84.09
70374;BME280;57792;49.198;7.890;2022-09-27T03:33:11;97107.03;;;7.65;84.39
70374;BME280;57792;49.198;7.890;2022-09-27T03:34:12;97121.22;;;7.48;84.48
70374;BME280;57792;49.198;7.890;2022-09-27T03:35:13;97110.28;;;7.54;83.95
70374;BME280;57792;49.198;7.890;2022-09-27T03:36:13;97118.44;;;7.67;83.76
70374;BME280;57792;49.198;7.890;2022-09-27T03:37:14;97121.50;;;7.59;83.80
70374;BME280;57792;49.198;7.890;2022-09-27T03:38:14;97120.72;;;7.57;83.96
70374;BME280;57792;49.198;7.890;2022-09-27T03:39:15;97115.41;;;7.57;83.50
70374;BME280;57792;49.198;7.890;2022-09-27T03:40:15;97107.25;;;7.44;84.32
70374;BME280;57792;49.198;7.890;2022-09-27T03:41:15;97119.19;;;7.69;83.72
70374;BME280;57792;49.198;7.890;2022-09-27T03:42:16;97112.94;;;7.70;83.80
70374;BME280;57792;49.198;7.890;2022-09-27T03:43:16;97110.72;;;7.62;83.93
70374;BME280;57792;49.198;7.890;2022-09-27T03:44:17;97108.84;;;7.64;83.84
70374;BME280;57792;49.198;7.890;2022-09-27T03:45:17;97121.59;;;7.73;83.59
70374;BME280;57792;49.198;7.890;2022-09-27T03:46:18;97109.78;;;7.63;83.67
70374;BME280;57792;49.198;7.890;2022-09-27T03:47:18;97116.34;;;7.56;83.91
70374;BME280;57792;49.198;7.890;2022-09-27T03:48:18;97129.63;;;7.56;83.89
70374;BME280;57792;49.198;7.890;2022-09-27T03:49:19;97122.44;;;7.58;83.69
70374;BME280;57792;49.198;7.890;2022-09-27T03:50:19;97132.34;;;7.55;83.34
70374;BME280;57792;49.198;7.890;2022-09-27T03:51:20;97131.94;;;7.62;83.76
70374;BME280;57792;49.198;7.890;2022-09-27T03:52:20;97128.44;;;7.62;83.36
70374;BME280;57792;49.198;7.890;2022-09-27T03:53:21;97129.44;;;7.59;82.74
70374;BME280;57792;49.198;7.890;2022-09-27T03:54:21;97121.13;;;7.34;83.62
70374;BME280;57792;49.198;7.890;2022-09-27T03:55:22;97128.06;;;7.36;83.99
70374;BME280;57792;49.198;7.890;2022-09-27T03:56:22;97131.13;;;7.44;83.88
70374;BME280;57792;49.198;7.890;2022-09-27T03:57:22;97139.13;;;7.60;83.47
70374;BME280;57792;49.198;7.890;2022-09-27T03:58:23;97126.09;;;7.56;83.56
70374;BME280;57792;49.198;7.890;2022-09-27T03:59:23;97139.00;;;7.46;83.69
70374;BME280;57792;49.198;7.890;2022-09-27T04:00:24;97132.25;;;7.40;83.59
70374;BME280;57792;49.198;7.890;2022-09-27T04:01:25;97145.94;;;7.49;83.60
70374;BME280;57792;49.198;7.890;2022-09-27T04:02:27;97145.59;;;7.55;83.62
70374;BME280;57792;49.198;7.890;2022-09-27T04:03:27;97139.34;;;7.40;83.58
70374;BME280;57792;49.198;7.890;2022-09-27T04:04:28;97138.75;;;7.51;83.38
70374;BME280;57792;49.198;7.890;2022-09-27T04:05:28;97141.16;;;7.55;83.35
70374;BME280;57792;49.198;7.890;2022-09-27T04:06:29;97139.22;;;7.26;84.28
70374;BME280;57792;49.198;7.890;2022-09-27T04:07:30;97145.59;;;7.39;84.20
70374;BME280;57792;49.198;7.890;2022-09-27T04:08:30;97146.00;;;7.31;84.21
70374;BME280;57792;49.198;7.890;2022-09-27T04:09:31;97145.75;;;7.36;83.67
70374;BME280;57792;49.198;7.890;2022-09-27T04:10:31;97153.13;;;7.47;83.33
70374;BME280;57792;49.198;7.890;2022-09-27T04:11:31;97153.19;;;7.45;83.43
70374;BME280;57792;49.198;7.890;2022-09-27T04:12:32;97153.56;;;7.39;83.73
70374;BME280;57792;49.198;7.890;2022-09-27T04:13:33;97149.69;;;7.44;83.36
70374;BME280;57792;49.198;7.890;2022-09-27T04:14:33;97152.09;;;7.49;83.08
70374;BME280;57792;49.198;7.890;2022-09-27T04:15:34;97150.47;;;7.47;83.09
70374;BME280;57792;49.198;7.890;2022-09-27T04:16:34;97152.53;;;7.41;83.28
70374;BME280;57792;49.198;7.890;2022-09-27T04:17:34;97146.16;;;7.28;83.70
70374;BME280;57792;49.198;7.890;2022-09-27T04:18:35;97147.78;;;7.31;83.58
70374;BME280;57792;49.198;7.890;2022-09-27T04:19:35;97143.75;;;7.24;83.67
70374;BME280;57792;49.198;7.890;2022-09-27T04:20:37;97154.44;;;7.22;84.22
70374;BME280;57792;49.198;7.890;2022-09-27T04:21:37;97159.19;;;7.16;83.40
70374;BME280;57792;49.198;7.890;2022-09-27T04:22:39;97149.13;;;7.22;83.61
70374;BME280;57792;49.198;7.890;2022-09-27T04:23:40;97151.31;;;7.31;83.50
70374;BME280;57792;49.198;7.890;2022-09-27T04:24:41;97146.81;;;7.16;84.27
70374;BME280;57792;49.198;7.890;2022-09-27T04:25:41;97155.22;;;7.24;84.15
70374;BME280;57792;49.198;7.890;2022-09-27T04:26:42;97151.88;;;7.21;83.78
70374;BME280;57792;49.198;7.890;2022-09-27T04:27:45;97147.88;;;7.29;83.48
70374;BME280;57792;49.198;7.890;2022-09-27T04:28:47;97150.22;;;7.35;83.59
70374;BME280;57792;49.198;7.890;2022-09-27T04:29:49;97148.50;;;7.34;83.54
70374;BME280;57792;49.198;7.890;2022-09-27T04:30:49;97146.94;;;7.46;83.35
70374;BME280;57792;49.198;7.890;2022-09-27T04:31:49;97157.47;;;7.48;83.44
70374;BME280;57792;49.198;7.890;2022-09-27T04:32:51;97138.75;;;7.35;83.93
70374;BME280;57792;49.198;7.890;2022-09-27T04:33:51;97144.38;;;7.29;83.77
70374;BME280;57792;49.198;7.890;2022-09-27T04:34:53;97150.91;;;7.39;83.70
70374;BME280;57792;49.198;7.890;2022-09-27T04:36:19;97138.41;;;7.41;83.59
70374;BME280;57792;49.198;7.890;2022-09-27T04:37:26;97149.06;;;7.24;84.48
70374;BME280;57792;49.198;7.890;2022-09-27T04:38:26;97141.41;;;7.18;84.38
70374;BME280;57792;49.198;7.890;2022-09-27T04:39:27;97141.03;;;7.25;84.59
70374;BME280;57792;49.198;7.890;2022-09-27T04:40:27;97150.38;;;7.32;84.35
70374;BME280;57792;49.198;7.890;2022-09-27T04:41:28;97143.34;;;7.31;84.39
70374;BME280;57792;49.198;7.890;2022-09-27T04:42:29;97151.38;;;7.30;83.50
70374;BME280;57792;49.198;7.890;2022-09-27T04:43:29;97143.75;;;7.24;83.87
70374;BME280;57792;49.198;7.890;2022-09-27T04:44:29;97147.19;;;7.26;83.53
70374;BME280;57792;49.198;7.890;2022-09-27T04:45:30;97162.53;;;7.19;84.09
70374;BME280;57792;49.198;7.890;2022-09-27T04:46:30;97140.47;;;7.19;83.61
70374;BME280;57792;49.198;7.890;2022-09-27T04:47:31;97151.09;;;7.19;83.46
70374;BME280;57792;49.198;7.890;2022-09-27T04:48:33;97156.28;;;7.37;83.43
70374;BME280;57792;49.198;7.890;2022-09-27T04:49:33;97154.91;;;7.46;83.26
70374;BME280;57792;49.198;7.890;2022-09-27T04:50:34;97161.22;;;7.43;83.34
70374;BME280;57792;49.198;7.890;2022-09-27T04:51:34;97140.78;;;7.30;83.23
70374;BME280;57792;49.198;7.890;2022-09-27T04:52:35;97161.66;;;7.36;83.35
70374;BME280;57792;49.198;7.890;2022-09-27T04:53:36;97163.63;;;7.48;83.26
70374;BME280;57792;49.198;7.890;2022-09-27T04:54:37;97159.28;;;7.47;83.22
70374;BME280;57792;49.198;7.890;2022-09-27T04:55:37;97158.41;;;7.47;83.18
70374;BME280;57792;49.198;7.890;2022-09-27T04:56:37;97147.47;;;7.53;82.78
70374;BME280;57792;49.198;7.890;2022-09-27T04:57:38;97159.81;;;7.54;82.86
70374;BME280;57792;49.198;7.890;2022-09-27T04:58:38;97161.16;;;7.45;83.07
70374;BME280;57792;49.198;7.890;2022-09-27T04:59:39;97159.78;;;7.38;83.62
70374;BME280;57792;49.198;7.890;2022-09-27T05:00:40;97159.34;;;7.46;83.24
70374;BME280;57792;49.198;7.890;2022-09-27T05:01:44;97163.09;;;7.26;83.81
70374;BME280;57792;49.198;7.890;2022-09-27T05:02:45;97163.13;;;7.41;83.49
70374;BME280;57792;49.198;7.890;2022-09-27T05:03:47;97158.00;;;7.38;83.62
70374;BME280;57792;49.198;7.890;2022-09-27T05:04:47;97146.94;;;7.30;83.11
70374;BME280;57792;49.198;7.890;2022-09-27T05:05:48;97171.56;;;7.32;83.68
70374;BME280;57792;49.198;7.890;2022-09-27T05:06:48;97170.56;;;7.35;82.98
70374;BME280;57792;49.198;7.890;2022-09-27T05:07:49;97173.41;;;7.48;82.87
70374;BME280;57792;49.198;7.890;2022-09-27T05:08:49;97173.38;;;7.32;83.46
70374;BME280;57792;49.198;7.890;2022-09-27T05:09:50;97174.25;;;7.48;82.94
70374;BME280;57792;49.198;7.890;2022-09-27T05:10:50;97170.72;;;7.32;83.31
70374;BME280;57792;49.198;7.890;2022-09-27T05:11:51;97170.81;;;7.46;83.06
70374;BME280;57792;49.198;7.890;2022-09-27T05:12:51;97178.19;;;7.41;82.99
70374;BME280;57792;49.198;7.890;2022-09-27T05:13:51;97185.38;;;7.39;82.69
70374;BME280;57792;49.198;7.890;2022-09-27T05:14:52;97184.50;;;7.38;83.08
70374;BME280;57792;49.198;7.890;2022-09-27T05:15:53;97183.38;;;7.42;82.96
70374;BME280;57792;49.198;7.890;2022-09-27T05:16:54;97187.09;;;7.40;82.97
70374;BME280;57792;49.198;7.890;2022-09-27T05:17:54;97182.13;;;7.17;83.52
70374;BME280;57792;49.198;7.890;2022-09-27T05:18:55;97201.28;;;7.39;83.26
70374;BME280;57792;49.198;7.890;2022-09-27T05:19:56;97185.69;;;7.33;83.22
70374;BME280;57792;49.198;7.890;2022-09-27T05:20:57;97179.78;;;7.43;82.87
70374;BME280;57792;49.198;7.890;2022-09-27T05:21:58;97195.47;;;7.48;82.70
70374;BME280;57792;49.198;7.890;2022-09-27T05:22:59;97192.41;;;7.56;82.64
70374;BME280;57792;49.198;7.890;2022-09-27T05:24:00;97201.69;;;7.47;82.57
70374;BME280;57792;49.198;7.890;2022-09-27T05:25:00;97191.16;;;7.30;82.51
70374;BME280;57792;49.198;7.890;2022-09-27T05:26:04;97203.38;;;7.32;82.74
70374;BME280;57792;49.198;7.890;2022-09-27T05:27:07;97202.56;;;7.48;82.67
70374;BME280;57792;49.198;7.890;2022-09-27T05:28:09;97198.66;;;7.55;82.50
70374;BME280;57792;49.198;7.890;2022-09-27T05:29:09;97203.03;;;7.56;82.08
70374;BME280;57792;49.198;7.890;2022-09-27T05:30:10;97203.19;;;7.53;82.34
70374;BME280;57792;49.198;7.890;2022-09-27T05:31:11;97209.22;;;7.39;82.45
70374;BME280;57792;49.198;7.890;2022-09-27T05:32:12;97217.34;;;7.19;82.61
70374;BME280;57792;49.198;7.890;2022-09-27T05:33:13;97215.31;;;7.24;82.59
70374;BME280;57792;49.198;7.890;2022-09-27T05:34:13;97208.63;;;7.17;82.60
70374;BME280;57792;49.198;7.890;2022-09-27T05:35:14;97212.13;;;7.34;82.68
70374;BME280;57792;49.198;7.890;2022-09-27T05:36:16;97206.75;;;7.19;82.82
70374;BME280;57792;49.198;7.890;2022-09-27T05:37:16;97214.72;;;7.01;83.36
70374;BME280;57792;49.198;7.890;2022-09-27T05:38:17;97212.97;;;7.18;83.20
70374;BME280;57792;49.198;7.890;2022-09-27T05:39:18;97216.88;;;7.10;82.85
70374;BME280;57792;49.198;7.890;2022-09-27T05:40:19;97214.47;;;7.23;82.86
70374;BME280;57792;49.198;7.890;2022-09-27T05:41:23;97224.28;;;7.21;82.86
70374;BME280;57792;49.198;7.890;2022-09-27T05:42:24;97211.69;;;7.09;82.52
70374;BME280;57792;49.198;7.890;2022-09-27T05:43:25;97228.53;;;7.08;82.89
70374;BME280;57792;49.198;7.890;2022-09-27T05:44:26;97223.66;;;7.16;82.84
70374;BME280;57792;49.198;7.890;2022-09-27T05:45:26;97220.47;;;7.27;82.26
70374;BME280;57792;49.198;7.890;2022-09-27T05:46:26;97226.00;;;7.22;82.32
70374;BME280;57792;49.198;7.890;2022-09-27T05:47:27;97222.50;;;7.22;82.04
70374;BME280;57792;49.198;7.890;2022-09-27T05:48:27;97231.00;;;7.28;81.86
70374;BME280;57792;49.198;7.890;2022-09-27T05:49:29;97219.47;;;7.29;81.83
70374;BME280;57792;49.198;7.890;2022-09-27T05:50:30;97241.06;;;7.39;81.86
70374;BME280;57792;49.198;7.890;2022-09-27T05:51:30;97239.06;;;7.42;81.88
70374;BME280;57792;49.198;7.890;2022-09-27T05:52:31;97243.31;;;7.29;82.26
70374;BME280;57792;49.198;7.890;2022-09-27T05:53:31;97242.84;;;7.38;81.97
70374;BME280;57792;49.198;7.890;2022-09-27T05:54:32;97244.88;;;7.33;82.06
70374;BME280;57792;49.198;7.890;2022-09-27T05:55:33;97241.47;;;7.47;81.51
70374;BME280;57792;49.198;7.890;2022-09-27T05:56:34;97239.19;;;7.41;81.41
70374;BME280;57792;49.198;7.890;2022-09-27T05:57:34;97237.53;;;7.38;81.31
70374;BME280;57792;49.198;7.890;2022-09-27T05:58:34;97243.63;;;7.40;82.01
70374;BME280;57792;49.198;7.890;2022-09-27T05:59:35;97246.66;;;7.33;81.79
70374;BME280;57792;49.198;7.890;2022-09-27T06:00:37;97236.13;;;7.31;81.48
70374;BME280;57792;49.198;7.890;2022-09-27T06:01:37;97250.25;;;7.32;81.36
70374;BME280;57792;49.198;7.890;2022-09-27T06:02:37;97238.94;;;7.28;81.52
70374;BME280;57792;49.198;7.890;2022-09-27T06:03:38;97245.50;;;7.38;81.44
70374;BME280;57792;49.198;7.890;2022-09-27T06:04:40;97244.47;;;7.24;81.35
70374;BME280;57792;49.198;7.890;2022-09-27T06:05:40;97244.72;;;7.19;81.66
70374;BME280;57792;49.198;7.890;2022-09-27T06:06:41;97246.44;;;7.20;81.58
70374;BME280;57792;49.198;7.890;2022-09-27T06:07:41;97254.84;;;7.11;81.67
70374;BME280;57792;49.198;7.890;2022-09-27T06:08:41;97244.88;;;6.99;81.79
70374;BME280;57792;49.198;7.890;2022-09-27T06:09:42;97251.72;;;7.20;82.01
70374;BME280;57792;49.198;7.890;2022-09-27T06:10:43;97246.66;;;7.16;81.48
70374;BME280;57792;49.198;7.890;2022-09-27T06:11:44;97238.56;;;7.19;81.54
70374;BME280;57792;49.198;7.890;2022-09-27T06:12:45;97244.16;;;7.30;81.17
70374;BME280;57792;49.198;7.890;2022-09-27T06:13:45;97245.34;;;7.41;80.92
70374;BME280;57792;49.198;7.890;2022-09-27T06:14:46;97250.25;;;7.32;81.21
70374;BME280;57792;49.198;7.890;2022-09-27T06:15:47;97248.63;;;7.29;81.35
70374;BME280;57792;49.198;7.890;2022-09-27T06:16:50;97259.00;;;7.34;81.50